sensor_id;sensor_type;location;lat;lon;timestamp;P1;durP1;ratioP1;P2;durP2;ratioP2
34673;SDS011;20879;55.668;37.858;2022-12-29T00:01:23;2.08;;;1.38;;
34673;SDS011;20879;55.668;37.858;2022-12-29T00:03:52;0.77;;;0.68;;
34673;SDS011;20879;55.668;37.858;2022-12-29T00:06:22;1.77;;;1.10;;
34673;SDS011;20879;55.668;37.858;2022-12-29T00:08:52;3.28;;;1.13;;
34673;SDS011;20879;55.668;37.858;2022-12-29T00:11:21;2.17;;;0.98;;
34673;SDS011;20879;55.668;37.858;2022-12-29T00:13:53;1.10;;;0.98;;
34673;SDS011;20879;55.668;37.858;2022-12-29T00:16:38;3.08;;;1.27;;
34673;SDS011;20879;55.668;37.858;2022-12-29T00:19:11;0.95;;;0.95;;
34673;SDS011;20879;55.668;37.858;2022-12-29T00:21:54;1.10;;;0.95;;
34673;SDS011;20879;55.668;37.858;2022-12-29T00:24:36;1.40;;;1.00;;
34673;SDS011;20879;55.668;37.858;2022-12-29T00:30:08;1.20;;;0.75;;
34673;SDS011;20879;55.668;37.858;2022-12-29T00:32:53;1.35;;;0.88;;
34673;SDS011;20879;55.668;37.858;2022-12-29T00:35:37;1.08;;;0.93;;
34673;SDS011;20879;55.668;37.858;2022-12-29T00:38:11;1.30;;;0.80;;
34673;SDS011;20879;55.668;37.858;2022-12-29T00:40:55;1.63;;;0.90;;
34673;SDS011;20879;55.668;37.858;2022-12-29T00:43:37;2.28;;;1.00;;
34673;SDS011;20879;55.668;37.858;2022-12-29T00:48:50;2.25;;;1.00;;
34673;SDS011;20879;55.668;37.858;2022-12-29T00:51:45;1.55;;;0.80;;
34673;SDS011;20879;55.668;37.858;2022-12-29T00:54:14;1.95;;;0.95;;
34673;SDS011;20879;55.668;37.858;2022-12-29T00:56:45;3.30;;;1.05;;
34673;SDS011;20879;55.668;37.858;2022-12-29T00:59:16;0.55;;;0.55;;
34673;SDS011;20879;55.668;37.858;2022-12-29T01:01:46;0.95;;;0.80;;
34673;SDS011;20879;55.668;37.858;2022-12-29T01:04:24;0.70;;;0.70;;
34673;SDS011;20879;55.668;37.858;2022-12-29T01:06:54;2.90;;;0.77;;
34673;SDS011;20879;55.668;37.858;2022-12-29T01:09:23;0.70;;;0.65;;
34673;SDS011;20879;55.668;37.858;2022-12-29T01:12:07;0.60;;;0.55;;
34673;SDS011;20879;55.668;37.858;2022-12-29T01:14:37;0.97;;;0.50;;
34673;SDS011;20879;55.668;37.858;2022-12-29T01:17:12;1.15;;;0.40;;
34673;SDS011;20879;55.668;37.858;2022-12-29T01:19:48;2.38;;;0.50;;
34673;SDS011;20879;55.668;37.858;2022-12-29T01:22:23;0.75;;;0.60;;
34673;SDS011;20879;55.668;37.858;2022-12-29T01:24:54;2.40;;;0.65;;
34673;SDS011;20879;55.668;37.858;2022-12-29T01:27:24;0.40;;;0.40;;
34673;SDS011;20879;55.668;37.858;2022-12-29T01:29:53;0.82;;;0.60;;
34673;SDS011;20879;55.668;37.858;2022-12-29T01:32:29;1.55;;;0.90;;
34673;SDS011;20879;55.668;37.858;2022-12-29T01:35:01;0.85;;;0.60;;
34673;SDS011;20879;55.668;37.858;2022-12-29T01:37:33;0.55;;;0.43;;
34673;SDS011;20879;55.668;37.858;2022-12-29T01:40:08;1.75;;;0.75;;
34673;SDS011;20879;55.668;37.858;2022-12-29T01:42:44;0.73;;;0.52;;
34673;SDS011;20879;55.668;37.858;2022-12-29T01:45:14;2.78;;;0.82;;
34673;SDS011;20879;55.668;37.858;2022-12-29T01:47:46;0.70;;;0.47;;
34673;SDS011;20879;55.668;37.858;2022-12-29T01:50:32;1.73;;;0.80;;
34673;SDS011;20879;55.668;37.858;2022-12-29T01:53:05;2.00;;;0.65;;
34673;SDS011;20879;55.668;37.858;2022-12-29T01:55:40;2.42;;;0.65;;
34673;SDS011;20879;55.668;37.858;2022-12-29T01:58:13;1.25;;;0.50;;
34673;SDS011;20879;55.668;37.858;2022-12-29T02:00:46;2.67;;;0.65;;
34673;SDS011;20879;55.668;37.858;2022-12-29T02:03:15;0.88;;;0.60;;
34673;SDS011;20879;55.668;37.858;2022-12-29T02:05:56;1.77;;;0.95;;
34673;SDS011;20879;55.668;37.858;2022-12-29T02:08:30;2.03;;;0.70;;
34673;SDS011;20879;55.668;37.858;2022-12-29T02:11:00;2.65;;;0.90;;
34673;SDS011;20879;55.668;37.858;2022-12-29T02:13:33;3.83;;;0.80;;
34673;SDS011;20879;55.668;37.858;2022-12-29T02:16:11;2.83;;;0.90;;
34673;SDS011;20879;55.668;37.858;2022-12-29T02:18:59;0.88;;;0.70;;
34673;SDS011;20879;55.668;37.858;2022-12-29T02:21:55;1.95;;;0.80;;
34673;SDS011;20879;55.668;37.858;2022-12-29T02:24:38;1.52;;;0.68;;
34673;SDS011;20879;55.668;37.858;2022-12-29T02:27:35;1.67;;;1.00;;
34673;SDS011;20879;55.668;37.858;2022-12-29T02:33:35;1.55;;;0.70;;
34673;SDS011;20879;55.668;37.858;2022-12-29T02:36:19;2.83;;;0.88;;
34673;SDS011;20879;55.668;37.858;2022-12-29T02:38:57;1.33;;;1.05;;
34673;SDS011;20879;55.668;37.858;2022-12-29T02:41:31;2.70;;;0.77;;
34673;SDS011;20879;55.668;37.858;2022-12-29T02:44:04;1.63;;;0.73;;
34673;SDS011;20879;55.668;37.858;2022-12-29T02:46:43;1.45;;;0.75;;
34673;SDS011;20879;55.668;37.858;2022-12-29T02:49:22;1.00;;;0.47;;
34673;SDS011;20879;55.668;37.858;2022-12-29T02:52:00;2.60;;;1.00;;
34673;SDS011;20879;55.668;37.858;2022-12-29T02:54:38;1.48;;;0.70;;
34673;SDS011;20879;55.668;37.858;2022-12-29T02:57:11;2.47;;;0.80;;
34673;SDS011;20879;55.668;37.858;2022-12-29T02:59:44;2.58;;;0.60;;
34673;SDS011;20879;55.668;37.858;2022-12-29T03:02:23;2.38;;;0.70;;
34673;SDS011;20879;55.668;37.858;2022-12-29T03:05:12;1.92;;;0.57;;
34673;SDS011;20879;55.668;37.858;2022-12-29T03:08:14;0.70;;;0.60;;
34673;SDS011;20879;55.668;37.858;2022-12-29T03:10:50;0.80;;;0.50;;
34673;SDS011;20879;55.668;37.858;2022-12-29T03:13:28;1.35;;;0.85;;
34673;SDS011;20879;55.668;37.858;2022-12-29T03:16:20;1.38;;;1.00;;
34673;SDS011;20879;55.668;37.858;2022-12-29T03:18:57;2.30;;;0.95;;
34673;SDS011;20879;55.668;37.858;2022-12-29T03:21:37;1.95;;;0.98;;
34673;SDS011;20879;55.668;37.858;2022-12-29T03:24:25;2.05;;;0.93;;
34673;SDS011;20879;55.668;37.858;2022-12-29T03:26:58;1.73;;;0.80;;
34673;SDS011;20879;55.668;37.858;2022-12-29T03:29:36;4.00;;;1.30;;
34673;SDS011;20879;55.668;37.858;2022-12-29T03:32:11;2.60;;;1.00;;
34673;SDS011;20879;55.668;37.858;2022-12-29T03:34:46;1.73;;;0.98;;
34673;SDS011;20879;55.668;37.858;2022-12-29T03:37:23;4.43;;;1.27;;
34673;SDS011;20879;55.668;37.858;2022-12-29T03:39:58;2.63;;;1.00;;
34673;SDS011;20879;55.668;37.858;2022-12-29T03:42:28;1.13;;;0.77;;
34673;SDS011;20879;55.668;37.858;2022-12-29T03:45:01;2.30;;;1.00;;
34673;SDS011;20879;55.668;37.858;2022-12-29T03:47:33;1.17;;;1.00;;
34673;SDS011;20879;55.668;37.858;2022-12-29T03:50:05;1.63;;;1.05;;
34673;SDS011;20879;55.668;37.858;2022-12-29T03:52:38;3.60;;;0.93;;
34673;SDS011;20879;55.668;37.858;2022-12-29T03:55:09;5.47;;;0.88;;
34673;SDS011;20879;55.668;37.858;2022-12-29T03:57:39;3.58;;;1.20;;
34673;SDS011;20879;55.668;37.858;2022-12-29T04:00:13;0.98;;;0.70;;
34673;SDS011;20879;55.668;37.858;2022-12-29T04:02:48;4.50;;;1.30;;
34673;SDS011;20879;55.668;37.858;2022-12-29T04:05:22;2.85;;;1.00;;
34673;SDS011;20879;55.668;37.858;2022-12-29T04:08:02;1.25;;;0.90;;
34673;SDS011;20879;55.668;37.858;2022-12-29T04:10:31;1.75;;;0.93;;
34673;SDS011;20879;55.668;37.858;2022-12-29T04:13:04;3.47;;;1.30;;
34673;SDS011;20879;55.668;37.858;2022-12-29T04:15:33;4.40;;;1.05;;
34673;SDS011;20879;55.668;37.858;2022-12-29T04:18:02;3.25;;;1.15;;
34673;SDS011;20879;55.668;37.858;2022-12-29T04:20:35;4.40;;;1.30;;
34673;SDS011;20879;55.668;37.858;2022-12-29T04:23:17;1.60;;;1.00;;
34673;SDS011;20879;55.668;37.858;2022-12-29T04:25:46;2.60;;;1.20;;
34673;SDS011;20879;55.668;37.858;2022-12-29T04:28:16;3.55;;;1.08;;
34673;SDS011;20879;55.668;37.858;2022-12-29T04:31:17;2.47;;;1.30;;
34673;SDS011;20879;55.668;37.858;2022-12-29T04:33:48;1.67;;;1.17;;
34673;SDS011;20879;55.668;37.858;2022-12-29T04:36:20;2.13;;;1.15;;
34673;SDS011;20879;55.668;37.858;2022-12-29T04:38:56;3.05;;;1.52;;
34673;SDS011;20879;55.668;37.858;2022-12-29T04:41:26;2.33;;;1.05;;
34673;SDS011;20879;55.668;37.858;2022-12-29T04:43:55;5.80;;;1.80;;
34673;SDS011;20879;55.668;37.858;2022-12-29T04:46:39;2.72;;;1.30;;
34673;SDS011;20879;55.668;37.858;2022-12-29T04:49:17;3.65;;;1.25;;
34673;SDS011;20879;55.668;37.858;2022-12-29T04:51:54;3.05;;;1.50;;
34673;SDS011;20879;55.668;37.858;2022-12-29T04:54:44;4.68;;;1.17;;
34673;SDS011;20879;55.668;37.858;2022-12-29T04:57:17;1.63;;;1.02;;
34673;SDS011;20879;55.668;37.858;2022-12-29T04:59:51;2.70;;;1.40;;
34673;SDS011;20879;55.668;37.858;2022-12-29T05:02:21;1.95;;;1.30;;
34673;SDS011;20879;55.668;37.858;2022-12-29T05:04:51;1.25;;;1.08;;
34673;SDS011;20879;55.668;37.858;2022-12-29T05:07:23;3.33;;;1.20;;
34673;SDS011;20879;55.668;37.858;2022-12-29T05:09:54;3.67;;;1.40;;
34673;SDS011;20879;55.668;37.858;2022-12-29T05:12:24;3.13;;;1.60;;
34673;SDS011;20879;55.668;37.858;2022-12-29T05:14:57;4.50;;;1.48;;
34673;SDS011;20879;55.668;37.858;2022-12-29T05:17:30;2.13;;;1.17;;
34673;SDS011;20879;55.668;37.858;2022-12-29T05:19:59;1.73;;;1.30;;
34673;SDS011;20879;55.668;37.858;2022-12-29T05:22:31;2.88;;;1.60;;
34673;SDS011;20879;55.668;37.858;2022-12-29T05:25:00;4.45;;;1.15;;
34673;SDS011;20879;55.668;37.858;2022-12-29T05:27:35;1.88;;;1.27;;
34673;SDS011;20879;55.668;37.858;2022-12-29T05:30:15;3.20;;;1.13;;
34673;SDS011;20879;55.668;37.858;2022-12-29T05:32:50;4.32;;;1.15;;
34673;SDS011;20879;55.668;37.858;2022-12-29T05:35:19;2.67;;;1.50;;
34673;SDS011;20879;55.668;37.858;2022-12-29T05:37:50;3.00;;;1.60;;
34673;SDS011;20879;55.668;37.858;2022-12-29T05:40:20;3.22;;;1.80;;
34673;SDS011;20879;55.668;37.858;2022-12-29T05:42:51;2.78;;;1.70;;
34673;SDS011;20879;55.668;37.858;2022-12-29T05:48:24;1.60;;;1.30;;
34673;SDS011;20879;55.668;37.858;2022-12-29T05:51:37;3.67;;;1.65;;
34673;SDS011;20879;55.668;37.858;2022-12-29T05:54:08;2.97;;;1.67;;
34673;SDS011;20879;55.668;37.858;2022-12-29T05:56:43;4.65;;;1.65;;
34673;SDS011;20879;55.668;37.858;2022-12-29T05:59:12;2.92;;;1.38;;
34673;SDS011;20879;55.668;37.858;2022-12-29T06:01:46;2.78;;;1.35;;
34673;SDS011;20879;55.668;37.858;2022-12-29T06:04:16;2.40;;;1.60;;
34673;SDS011;20879;55.668;37.858;2022-12-29T06:06:48;2.67;;;1.60;;
34673;SDS011;20879;55.668;37.858;2022-12-29T06:09:27;3.70;;;1.50;;
34673;SDS011;20879;55.668;37.858;2022-12-29T06:12:03;3.40;;;1.42;;
34673;SDS011;20879;55.668;37.858;2022-12-29T06:14:33;2.55;;;1.42;;
34673;SDS011;20879;55.668;37.858;2022-12-29T06:17:03;3.92;;;1.75;;
34673;SDS011;20879;55.668;37.858;2022-12-29T06:19:40;3.08;;;1.50;;
34673;SDS011;20879;55.668;37.858;2022-12-29T06:22:15;8.20;;;1.77;;
34673;SDS011;20879;55.668;37.858;2022-12-29T06:24:52;2.60;;;1.80;;
34673;SDS011;20879;55.668;37.858;2022-12-29T06:27:29;4.03;;;1.48;;
34673;SDS011;20879;55.668;37.858;2022-12-29T06:29:58;2.45;;;1.73;;
34673;SDS011;20879;55.668;37.858;2022-12-29T06:32:30;2.30;;;1.52;;
34673;SDS011;20879;55.668;37.858;2022-12-29T06:35:08;4.03;;;1.85;;
34673;SDS011;20879;55.668;37.858;2022-12-29T06:37:45;4.43;;;2.00;;
34673;SDS011;20879;55.668;37.858;2022-12-29T06:40:17;4.32;;;2.00;;
34673;SDS011;20879;55.668;37.858;2022-12-29T06:43:15;3.50;;;1.60;;
34673;SDS011;20879;55.668;37.858;2022-12-29T06:45:58;5.07;;;2.00;;
34673;SDS011;20879;55.668;37.858;2022-12-29T06:48:28;3.30;;;1.83;;
34673;SDS011;20879;55.668;37.858;2022-12-29T06:50:57;4.22;;;2.00;;
34673;SDS011;20879;55.668;37.858;2022-12-29T06:53:26;4.30;;;1.92;;
34673;SDS011;20879;55.668;37.858;2022-12-29T06:55:59;2.75;;;2.13;;
34673;SDS011;20879;55.668;37.858;2022-12-29T06:58:28;7.10;;;2.28;;
34673;SDS011;20879;55.668;37.858;2022-12-29T07:00:57;2.42;;;2.00;;
34673;SDS011;20879;55.668;37.858;2022-12-29T07:03:32;3.00;;;2.00;;
34673;SDS011;20879;55.668;37.858;2022-12-29T07:06:01;4.22;;;2.03;;
34673;SDS011;20879;55.668;37.858;2022-12-29T07:08:30;5.82;;;1.88;;
34673;SDS011;20879;55.668;37.858;2022-12-29T07:11:01;3.60;;;2.10;;
34673;SDS011;20879;55.668;37.858;2022-12-29T07:13:31;3.55;;;1.90;;
34673;SDS011;20879;55.668;37.858;2022-12-29T07:16:04;4.75;;;2.33;;
34673;SDS011;20879;55.668;37.858;2022-12-29T07:18:34;4.32;;;2.00;;
34673;SDS011;20879;55.668;37.858;2022-12-29T07:21:04;2.92;;;2.15;;
34673;SDS011;20879;55.668;37.858;2022-12-29T07:23:33;3.22;;;1.98;;
34673;SDS011;20879;55.668;37.858;2022-12-29T07:26:11;4.38;;;2.10;;
34673;SDS011;20879;55.668;37.858;2022-12-29T07:28:45;2.75;;;1.80;;
34673;SDS011;20879;55.668;37.858;2022-12-29T07:31:22;3.90;;;2.13;;
34673;SDS011;20879;55.668;37.858;2022-12-29T07:33:57;2.55;;;1.80;;
34673;SDS011;20879;55.668;37.858;2022-12-29T07:36:26;1.80;;;1.55;;
34673;SDS011;20879;55.668;37.858;2022-12-29T07:39:00;4.03;;;2.33;;
34673;SDS011;20879;55.668;37.858;2022-12-29T07:41:32;3.22;;;2.20;;
34673;SDS011;20879;55.668;37.858;2022-12-29T07:46:56;3.42;;;1.98;;
34673;SDS011;20879;55.668;37.858;2022-12-29T07:49:37;5.80;;;2.15;;
34673;SDS011;20879;55.668;37.858;2022-12-29T07:52:07;4.03;;;2.58;;
34673;SDS011;20879;55.668;37.858;2022-12-29T07:54:36;4.18;;;2.63;;
34673;SDS011;20879;55.668;37.858;2022-12-29T07:57:07;3.95;;;2.67;;
34673;SDS011;20879;55.668;37.858;2022-12-29T07:59:47;6.60;;;2.85;;
34673;SDS011;20879;55.668;37.858;2022-12-29T08:02:17;5.15;;;2.90;;
34673;SDS011;20879;55.668;37.858;2022-12-29T08:04:46;4.80;;;2.88;;
34673;SDS011;20879;55.668;37.858;2022-12-29T08:07:20;5.00;;;3.03;;
34673;SDS011;20879;55.668;37.858;2022-12-29T08:09:52;5.88;;;2.60;;
34673;SDS011;20879;55.668;37.858;2022-12-29T08:12:28;6.32;;;3.20;;
34673;SDS011;20879;55.668;37.858;2022-12-29T08:14:58;6.35;;;3.03;;
34673;SDS011;20879;55.668;37.858;2022-12-29T08:17:29;4.53;;;2.13;;
34673;SDS011;20879;55.668;37.858;2022-12-29T08:19:58;5.22;;;3.38;;
34673;SDS011;20879;55.668;37.858;2022-12-29T08:22:42;7.55;;;3.05;;
34673;SDS011;20879;55.668;37.858;2022-12-29T08:25:11;6.57;;;3.42;;
34673;SDS011;20879;55.668;37.858;2022-12-29T08:27:49;5.47;;;2.97;;
34673;SDS011;20879;55.668;37.858;2022-12-29T08:30:18;5.72;;;3.38;;
34673;SDS011;20879;55.668;37.858;2022-12-29T08:32:53;7.35;;;3.60;;
34673;SDS011;20879;55.668;37.858;2022-12-29T08:35:27;4.88;;;2.72;;
34673;SDS011;20879;55.668;37.858;2022-12-29T08:37:56;5.18;;;3.08;;
34673;SDS011;20879;55.668;37.858;2022-12-29T08:40:30;5.57;;;3.67;;
34673;SDS011;20879;55.668;37.858;2022-12-29T08:43:02;6.75;;;3.40;;
34673;SDS011;20879;55.668;37.858;2022-12-29T08:45:31;4.35;;;2.80;;
34673;SDS011;20879;55.668;37.858;2022-12-29T08:48:01;6.43;;;3.47;;
34673;SDS011;20879;55.668;37.858;2022-12-29T08:50:36;6.88;;;3.03;;
34673;SDS011;20879;55.668;37.858;2022-12-29T08:55:41;6.45;;;3.70;;
34673;SDS011;20879;55.668;37.858;2022-12-29T08:58:12;9.05;;;3.67;;
34673;SDS011;20879;55.668;37.858;2022-12-29T09:00:47;8.50;;;3.83;;
34673;SDS011;20879;55.668;37.858;2022-12-29T09:03:23;6.95;;;4.05;;
34673;SDS011;20879;55.668;37.858;2022-12-29T09:06:14;5.78;;;3.58;;
34673;SDS011;20879;55.668;37.858;2022-12-29T09:08:44;8.55;;;4.15;;
34673;SDS011;20879;55.668;37.858;2022-12-29T09:11:15;7.78;;;3.92;;
34673;SDS011;20879;55.668;37.858;2022-12-29T09:13:48;7.43;;;3.90;;
34673;SDS011;20879;55.668;37.858;2022-12-29T09:16:18;5.88;;;3.25;;
34673;SDS011;20879;55.668;37.858;2022-12-29T09:18:50;6.93;;;4.03;;
34673;SDS011;20879;55.668;37.858;2022-12-29T09:21:19;7.97;;;3.53;;
34673;SDS011;20879;55.668;37.858;2022-12-29T09:23:49;7.05;;;3.95;;
34673;SDS011;20879;55.668;37.858;2022-12-29T09:26:18;7.20;;;3.85;;
34673;SDS011;20879;55.668;37.858;2022-12-29T09:28:49;8.77;;;4.22;;
34673;SDS011;20879;55.668;37.858;2022-12-29T09:31:19;9.90;;;4.13;;
34673;SDS011;20879;55.668;37.858;2022-12-29T09:33:48;8.00;;;4.25;;
34673;SDS011;20879;55.668;37.858;2022-12-29T09:36:22;10.00;;;4.53;;
34673;SDS011;20879;55.668;37.858;2022-12-29T09:38:52;8.20;;;4.18;;
34673;SDS011;20879;55.668;37.858;2022-12-29T09:41:23;8.48;;;4.43;;
34673;SDS011;20879;55.668;37.858;2022-12-29T09:44:01;9.15;;;4.00;;
34673;SDS011;20879;55.668;37.858;2022-12-29T09:46:36;9.18;;;4.20;;
34673;SDS011;20879;55.668;37.858;2022-12-29T09:49:15;8.27;;;4.55;;
34673;SDS011;20879;55.668;37.858;2022-12-29T09:51:50;6.90;;;4.40;;
34673;SDS011;20879;55.668;37.858;2022-12-29T09:54:31;8.30;;;4.07;;
34673;SDS011;20879;55.668;37.858;2022-12-29T09:57:24;6.07;;;3.95;;
34673;SDS011;20879;55.668;37.858;2022-12-29T10:00:05;9.70;;;3.92;;
34673;SDS011;20879;55.668;37.858;2022-12-29T10:02:42;7.03;;;3.97;;
34673;SDS011;20879;55.668;37.858;2022-12-29T10:05:13;10.80;;;5.57;;
34673;SDS011;20879;55.668;37.858;2022-12-29T10:07:54;6.50;;;4.22;;
34673;SDS011;20879;55.668;37.858;2022-12-29T10:10:33;10.77;;;4.22;;
34673;SDS011;20879;55.668;37.858;2022-12-29T10:13:15;9.80;;;4.40;;
34673;SDS011;20879;55.668;37.858;2022-12-29T10:16:02;6.27;;;4.17;;
34673;SDS011;20879;55.668;37.858;2022-12-29T10:21:42;6.70;;;3.72;;
34673;SDS011;20879;55.668;37.858;2022-12-29T10:24:26;8.77;;;3.75;;
34673;SDS011;20879;55.668;37.858;2022-12-29T10:26:59;7.68;;;3.65;;
34673;SDS011;20879;55.668;37.858;2022-12-29T10:32:13;7.78;;;3.13;;
34673;SDS011;20879;55.668;37.858;2022-12-29T10:34:57;9.75;;;4.05;;
34673;SDS011;20879;55.668;37.858;2022-12-29T10:37:34;6.78;;;3.60;;
34673;SDS011;20879;55.668;37.858;2022-12-29T10:40:18;8.55;;;4.53;;
34673;SDS011;20879;55.668;37.858;2022-12-29T10:45:24;10.25;;;4.00;;
34673;SDS011;20879;55.668;37.858;2022-12-29T10:48:02;5.70;;;3.85;;
34673;SDS011;20879;55.668;37.858;2022-12-29T10:50:34;6.55;;;3.58;;
34673;SDS011;20879;55.668;37.858;2022-12-29T10:53:15;9.20;;;4.57;;
34673;SDS011;20879;55.668;37.858;2022-12-29T10:55:49;7.35;;;3.55;;
34673;SDS011;20879;55.668;37.858;2022-12-29T10:58:19;8.68;;;4.13;;
34673;SDS011;20879;55.668;37.858;2022-12-29T11:00:50;7.68;;;3.70;;
34673;SDS011;20879;55.668;37.858;2022-12-29T11:03:35;7.88;;;4.00;;
34673;SDS011;20879;55.668;37.858;2022-12-29T11:06:16;7.63;;;3.83;;
34673;SDS011;20879;55.668;37.858;2022-12-29T11:08:56;8.10;;;3.47;;
34673;SDS011;20879;55.668;37.858;2022-12-29T11:11:28;8.65;;;3.88;;
34673;SDS011;20879;55.668;37.858;2022-12-29T11:14:02;8.40;;;4.38;;
34673;SDS011;20879;55.668;37.858;2022-12-29T11:16:48;6.10;;;3.60;;
34673;SDS011;20879;55.668;37.858;2022-12-29T11:19:33;5.93;;;3.50;;
34673;SDS011;20879;55.668;37.858;2022-12-29T11:22:12;7.13;;;3.67;;
34673;SDS011;20879;55.668;37.858;2022-12-29T11:24:43;8.02;;;3.67;;
34673;SDS011;20879;55.668;37.858;2022-12-29T11:27:15;8.85;;;3.97;;
34673;SDS011;20879;55.668;37.858;2022-12-29T11:29:47;10.85;;;4.35;;
34673;SDS011;20879;55.668;37.858;2022-12-29T11:32:17;8.15;;;4.30;;
34673;SDS011;20879;55.668;37.858;2022-12-29T11:35:02;9.77;;;4.18;;
34673;SDS011;20879;55.668;37.858;2022-12-29T11:37:39;7.35;;;4.22;;
34673;SDS011;20879;55.668;37.858;2022-12-29T11:40:15;7.70;;;4.45;;
34673;SDS011;20879;55.668;37.858;2022-12-29T11:42:47;7.25;;;4.10;;
34673;SDS011;20879;55.668;37.858;2022-12-29T11:45:25;8.43;;;4.30;;
34673;SDS011;20879;55.668;37.858;2022-12-29T11:48:06;8.27;;;4.53;;
34673;SDS011;20879;55.668;37.858;2022-12-29T11:50:40;8.43;;;5.00;;
34673;SDS011;20879;55.668;37.858;2022-12-29T11:53:13;8.93;;;4.07;;
34673;SDS011;20879;55.668;37.858;2022-12-29T11:55:53;11.88;;;4.40;;
34673;SDS011;20879;55.668;37.858;2022-12-29T11:58:28;8.00;;;4.35;;
34673;SDS011;20879;55.668;37.858;2022-12-29T12:00:59;10.93;;;3.83;;
34673;SDS011;20879;55.668;37.858;2022-12-29T12:03:31;8.55;;;4.35;;
34673;SDS011;20879;55.668;37.858;2022-12-29T12:06:10;6.97;;;3.65;;
34673;SDS011;20879;55.668;37.858;2022-12-29T12:08:45;7.85;;;3.92;;
34673;SDS011;20879;55.668;37.858;2022-12-29T12:11:26;9.00;;;4.13;;
34673;SDS011;20879;55.668;37.858;2022-12-29T12:14:04;7.57;;;3.67;;
34673;SDS011;20879;55.668;37.858;2022-12-29T12:19:45;5.30;;;3.25;;
34673;SDS011;20879;55.668;37.858;2022-12-29T12:22:35;10.02;;;3.72;;
34673;SDS011;20879;55.668;37.858;2022-12-29T12:25:09;8.10;;;3.47;;
34673;SDS011;20879;55.668;37.858;2022-12-29T12:27:47;8.13;;;3.80;;
34673;SDS011;20879;55.668;37.858;2022-12-29T12:30:21;8.10;;;4.07;;
34673;SDS011;20879;55.668;37.858;2022-12-29T12:32:58;6.15;;;3.78;;
34673;SDS011;20879;55.668;37.858;2022-12-29T12:35:32;7.13;;;3.92;;
34673;SDS011;20879;55.668;37.858;2022-12-29T12:38:18;12.63;;;4.35;;
34673;SDS011;20879;55.668;37.858;2022-12-29T12:40:58;6.65;;;3.60;;
34673;SDS011;20879;55.668;37.858;2022-12-29T12:43:40;7.97;;;4.18;;
34673;SDS011;20879;55.668;37.858;2022-12-29T12:46:19;10.93;;;4.80;;
34673;SDS011;20879;55.668;37.858;2022-12-29T12:54:33;6.63;;;3.65;;
34673;SDS011;20879;55.668;37.858;2022-12-29T12:57:15;10.90;;;4.65;;
34673;SDS011;20879;55.668;37.858;2022-12-29T12:59:52;6.93;;;4.35;;
34673;SDS011;20879;55.668;37.858;2022-12-29T13:02:40;8.43;;;4.32;;
34673;SDS011;20879;55.668;37.858;2022-12-29T13:05:24;13.48;;;5.20;;
34673;SDS011;20879;55.668;37.858;2022-12-29T13:11:13;12.00;;;4.80;;
34673;SDS011;20879;55.668;37.858;2022-12-29T13:13:59;11.65;;;5.32;;
34673;SDS011;20879;55.668;37.858;2022-12-29T13:16:44;9.48;;;5.25;;
34673;SDS011;20879;55.668;37.858;2022-12-29T13:19:22;10.23;;;4.85;;
34673;SDS011;20879;55.668;37.858;2022-12-29T13:22:11;7.57;;;4.65;;
34673;SDS011;20879;55.668;37.858;2022-12-29T13:24:49;13.90;;;5.25;;
34673;SDS011;20879;55.668;37.858;2022-12-29T13:27:32;8.95;;;4.88;;
34673;SDS011;20879;55.668;37.858;2022-12-29T13:30:08;11.13;;;5.28;;
34673;SDS011;20879;55.668;37.858;2022-12-29T13:32:45;10.48;;;5.70;;
34673;SDS011;20879;55.668;37.858;2022-12-29T13:35:32;12.13;;;5.90;;
34673;SDS011;20879;55.668;37.858;2022-12-29T13:38:12;13.48;;;6.07;;
34673;SDS011;20879;55.668;37.858;2022-12-29T13:40:49;14.32;;;7.63;;
34673;SDS011;20879;55.668;37.858;2022-12-29T13:43:31;15.23;;;8.40;;
34673;SDS011;20879;55.668;37.858;2022-12-29T13:46:04;16.20;;;8.30;;
34673;SDS011;20879;55.668;37.858;2022-12-29T13:48:44;21.15;;;8.93;;
34673;SDS011;20879;55.668;37.858;2022-12-29T13:51:24;20.65;;;10.57;;
34673;SDS011;20879;55.668;37.858;2022-12-29T13:54:11;14.25;;;8.45;;
34673;SDS011;20879;55.668;37.858;2022-12-29T13:56:49;14.07;;;6.88;;
34673;SDS011;20879;55.668;37.858;2022-12-29T13:59:30;17.40;;;9.43;;
34673;SDS011;20879;55.668;37.858;2022-12-29T14:02:12;19.35;;;10.98;;
34673;SDS011;20879;55.668;37.858;2022-12-29T14:04:56;15.55;;;8.20;;
34673;SDS011;20879;55.668;37.858;2022-12-29T14:07:35;16.27;;;8.25;;
34673;SDS011;20879;55.668;37.858;2022-12-29T14:10:18;16.88;;;8.00;;
34673;SDS011;20879;55.668;37.858;2022-12-29T14:13:03;11.90;;;5.60;;
34673;SDS011;20879;55.668;37.858;2022-12-29T14:15:39;13.25;;;6.30;;
34673;SDS011;20879;55.668;37.858;2022-12-29T14:18:14;14.75;;;6.82;;
34673;SDS011;20879;55.668;37.858;2022-12-29T14:26:32;14.32;;;7.85;;
34673;SDS011;20879;55.668;37.858;2022-12-29T14:35:39;18.23;;;8.30;;
34673;SDS011;20879;55.668;37.858;2022-12-29T14:38:14;22.02;;;8.95;;
34673;SDS011;20879;55.668;37.858;2022-12-29T14:40:46;16.13;;;7.88;;
34673;SDS011;20879;55.668;37.858;2022-12-29T14:43:26;22.98;;;8.68;;
34673;SDS011;20879;55.668;37.858;2022-12-29T14:45:59;19.88;;;8.07;;
34673;SDS011;20879;55.668;37.858;2022-12-29T14:48:37;15.95;;;8.20;;
34673;SDS011;20879;55.668;37.858;2022-12-29T14:51:31;16.08;;;8.38;;
34673;SDS011;20879;55.668;37.858;2022-12-29T14:57:24;17.50;;;8.83;;
34673;SDS011;20879;55.668;37.858;2022-12-29T14:59:57;18.73;;;8.43;;
34673;SDS011;20879;55.668;37.858;2022-12-29T15:02:34;15.70;;;8.15;;
34673;SDS011;20879;55.668;37.858;2022-12-29T15:05:20;13.43;;;7.88;;
34673;SDS011;20879;55.668;37.858;2022-12-29T15:07:55;20.05;;;8.73;;
34673;SDS011;20879;55.668;37.858;2022-12-29T15:10:26;13.88;;;7.53;;
34673;SDS011;20879;55.668;37.858;2022-12-29T15:13:03;16.25;;;7.43;;
34673;SDS011;20879;55.668;37.858;2022-12-29T15:15:36;14.95;;;7.93;;
34673;SDS011;20879;55.668;37.858;2022-12-29T15:18:21;17.83;;;7.90;;
34673;SDS011;20879;55.668;37.858;2022-12-29T15:20:55;20.60;;;8.15;;
34673;SDS011;20879;55.668;37.858;2022-12-29T15:23:26;13.15;;;7.70;;
34673;SDS011;20879;55.668;37.858;2022-12-29T15:25:58;13.68;;;7.07;;
34673;SDS011;20879;55.668;37.858;2022-12-29T15:28:36;16.90;;;8.00;;
34673;SDS011;20879;55.668;37.858;2022-12-29T15:31:12;14.05;;;7.93;;
34673;SDS011;20879;55.668;37.858;2022-12-29T15:34:02;14.60;;;7.45;;
34673;SDS011;20879;55.668;37.858;2022-12-29T15:36:45;17.73;;;7.85;;
34673;SDS011;20879;55.668;37.858;2022-12-29T15:39:19;16.75;;;8.07;;
34673;SDS011;20879;55.668;37.858;2022-12-29T15:41:52;16.25;;;7.80;;
34673;SDS011;20879;55.668;37.858;2022-12-29T15:44:32;18.52;;;8.43;;
34673;SDS011;20879;55.668;37.858;2022-12-29T15:47:05;15.90;;;7.45;;
34673;SDS011;20879;55.668;37.858;2022-12-29T15:49:41;16.25;;;8.45;;
34673;SDS011;20879;55.668;37.858;2022-12-29T15:52:15;16.45;;;7.55;;
34673;SDS011;20879;55.668;37.858;2022-12-29T15:54:47;20.50;;;8.85;;
34673;SDS011;20879;55.668;37.858;2022-12-29T15:57:21;19.27;;;9.70;;
34673;SDS011;20879;55.668;37.858;2022-12-29T15:59:52;20.52;;;9.68;;
34673;SDS011;20879;55.668;37.858;2022-12-29T16:02:22;23.38;;;9.25;;
34673;SDS011;20879;55.668;37.858;2022-12-29T16:04:53;23.10;;;10.38;;
34673;SDS011;20879;55.668;37.858;2022-12-29T16:07:53;18.50;;;8.90;;
34673;SDS011;20879;55.668;37.858;2022-12-29T16:10:30;23.63;;;9.82;;
34673;SDS011;20879;55.668;37.858;2022-12-29T16:13:04;22.15;;;9.75;;
34673;SDS011;20879;55.668;37.858;2022-12-29T16:15:46;23.23;;;10.35;;